createdAt,value
2022-10-19T00:02:19.628Z,102224.75
2022-10-19T00:04:46.197Z,102218.78
2022-10-19T00:07:12.694Z,102219.03
2022-10-19T00:09:39.841Z,102219.34
2022-10-19T00:12:06.369Z,102226.06
2022-10-19T00:14:32.969Z,102224.50
2022-10-19T00:16:59.563Z,102228.34
2022-10-19T00:19:27.395Z,102219.63
2022-10-19T00:21:54.437Z,102220.75
2022-10-19T00:24:21.226Z,102221.19
2022-10-19T00:26:47.752Z,102223.19
2022-10-19T00:29:15.427Z,102216.19
2022-10-19T00:31:44.953Z,102218.31
2022-10-19T00:34:11.972Z,102212.19
2022-10-19T00:36:40.365Z,102213.63
2022-10-19T00:39:08.815Z,102207.47
2022-10-19T00:41:36.810Z,102208.47
2022-10-19T00:44:03.245Z,102201.31
2022-10-19T00:46:31.817Z,102195.00
2022-10-19T00:49:09.838Z,102200.59
2022-10-19T00:51:40.689Z,102197.19
2022-10-19T00:54:08.312Z,102193.75
2022-10-19T00:56:35.896Z,102191.16
2022-10-19T00:59:04.509Z,102180.44
2022-10-19T01:01:31.745Z,102174.28
2022-10-19T01:03:58.774Z,102178.00
2022-10-19T01:06:25.598Z,102180.72
2022-10-19T01:08:52.135Z,102184.59
2022-10-19T01:11:30.459Z,102178.44
2022-10-19T01:14:21.797Z,102173.16
2022-10-19T01:17:11.215Z,102174.13
2022-10-19T01:20:05.566Z,102179.56
2022-10-19T01:23:01.407Z,102176.13
2022-10-19T01:26:05.285Z,102167.25
2022-10-19T01:29:22.980Z,102171.94
2022-10-19T01:31:57.818Z,102171.53
2022-10-19T01:34:45.135Z,102172.38
2022-10-19T01:37:17.291Z,102169.81
2022-10-19T01:39:53.090Z,102167.09
2022-10-19T01:42:42.279Z,102156.97
2022-10-19T01:45:29.111Z,102159.69
2022-10-19T01:48:12.179Z,102161.38
2022-10-19T01:50:46.506Z,102162.41
2022-10-19T01:53:14.312Z,102162.66
2022-10-19T01:55:43.214Z,102147.78
2022-10-19T01:58:12.191Z,102156.09
2022-10-19T02:00:41.298Z,102149.78
2022-10-19T02:03:09.175Z,102151.78
2022-10-19T02:05:36.613Z,102147.22
2022-10-19T02:08:06.624Z,102149.94
2022-10-19T02:10:34.894Z,102143.50
2022-10-19T02:13:03.140Z,102141.81
2022-10-19T02:15:32.010Z,102135.78
2022-10-19T02:18:00.004Z,102137.66
2022-10-19T02:20:27.405Z,102135.91
2022-10-19T02:22:54.293Z,102133.94
2022-10-19T02:25:21.424Z,102138.22
2022-10-19T02:27:47.973Z,102142.78
2022-10-19T02:30:16.628Z,102129.50
2022-10-19T02:32:44.039Z,102135.06
2022-10-19T02:35:12.119Z,102128.34
2022-10-19T02:37:39.104Z,102128.63
2022-10-19T02:40:06.620Z,102124.34
2022-10-19T02:42:36.649Z,102122.03
2022-10-19T02:45:12.443Z,102117.19
2022-10-19T02:47:42.981Z,102115.75
2022-10-19T02:50:10.244Z,102122.31
2022-10-19T02:52:38.164Z,102113.59
2022-10-19T02:55:06.140Z,102110.88
2022-10-19T02:57:32.924Z,102110.88
2022-10-19T02:59:59.897Z,102106.59
2022-10-19T03:02:26.557Z,102110.34
2022-10-19T03:04:53.054Z,102103.88
2022-10-19T03:07:20.974Z,102101.91
2022-10-19T03:09:47.752Z,102102.91
2022-10-19T03:12:14.882Z,102099.47
2022-10-19T03:14:41.428Z,102091.47
2022-10-19T03:17:08.114Z,102094.31
2022-10-19T03:19:35.410Z,102094.31
2022-10-19T03:22:01.933Z,102088.19
2022-10-19T03:24:30.112Z,102093.34
2022-10-19T03:26:56.659Z,102090.75
2022-10-19T03:29:23.192Z,102096.19
2022-10-19T03:31:49.747Z,102094.31
2022-10-19T03:34:16.403Z,102088.19
2022-10-19T03:36:42.937Z,102086.59
2022-10-19T03:39:14.311Z,102084.88
2022-10-19T03:41:41.350Z,102089.44
2022-10-19T03:44:08.688Z,102078.72
2022-10-19T03:46:35.862Z,102078.91
2022-10-19T03:49:03.006Z,102088.72
2022-10-19T03:51:30.615Z,102082.59
2022-10-19T03:54:14.013Z,102080.00
2022-10-19T03:56:40.678Z,102079.28
2022-10-19T03:59:07.461Z,102083.13
2022-10-19T04:01:39.396Z,102081.44
2022-10-19T04:04:18.480Z,102087.13
2022-10-19T04:06:47.186Z,102081.25
2022-10-19T04:09:16.442Z,102074.41
2022-10-19T04:11:43.378Z,102080.25
2022-10-19T04:14:15.926Z,102081.34
2022-10-19T04:16:49.545Z,102073.59
2022-10-19T04:19:16.954Z,102074.16
2022-10-19T04:21:44.753Z,102082.56
2022-10-19T04:24:16.248Z,102078.41
2022-10-19T04:26:48.271Z,102079.25
2022-10-19T04:29:15.700Z,102079.53
2022-10-19T04:31:42.814Z,102083.38
2022-10-19T04:34:09.482Z,102080.34
2022-10-19T04:36:36.124Z,102076.19
2022-10-19T04:39:03.641Z,102072.19
2022-10-19T04:41:30.212Z,102068.88
2022-10-19T04:43:58.557Z,102066.56
2022-10-19T04:46:26.475Z,102068.56
2022-10-19T04:48:53.676Z,102063.38
2022-10-19T04:51:20.559Z,102075.47
2022-10-19T04:53:47.334Z,102072.94
2022-10-19T04:56:26.136Z,102071.91
2022-10-19T04:59:00.151Z,102064.94
2022-10-19T05:01:27.922Z,102069.50
2022-10-19T05:04:01.996Z,102073.06
2022-10-19T05:06:30.033Z,102070.75
2022-10-19T05:08:56.810Z,102061.75
2022-10-19T05:11:23.797Z,102065.59
2022-10-19T05:13:50.388Z,102059.84
2022-10-19T05:16:19.087Z,102056.69
2022-10-19T05:18:56.138Z,102056.94
2022-10-19T05:21:23.051Z,102062.03
2022-10-19T05:23:52.278Z,102054.44
2022-10-19T05:26:21.030Z,102053.94
2022-10-19T05:28:56.346Z,102053.06
2022-10-19T05:31:25.782Z,102061.34
2022-10-19T05:33:52.416Z,102058.63
2022-10-19T05:36:27.746Z,102049.06
2022-10-19T05:38:56.315Z,102041.91
2022-10-19T05:41:23.959Z,102042.91
2022-10-19T05:43:58.137Z,102045.63
2022-10-19T05:46:25.827Z,102044.03
2022-10-19T05:48:52.768Z,102054.97
2022-10-19T05:51:21.153Z,102050.69
2022-10-19T05:53:47.742Z,102052.66
2022-10-19T05:56:19.469Z,102053.53
2022-10-19T05:58:46.037Z,102058.19
2022-10-19T06:01:13.981Z,102055.22
2022-10-19T06:03:40.554Z,102057.56
2022-10-19T06:06:08.352Z,102052.72
2022-10-19T06:08:35.279Z,102053.47
2022-10-19T06:11:07.568Z,102056.91
2022-10-19T06:13:34.354Z,102063.03
2022-10-19T06:16:00.874Z,102059.00
2022-10-19T06:18:27.480Z,102061.56
2022-10-19T06:20:54.061Z,102055.75
2022-10-19T06:23:20.635Z,102057.22
2022-10-19T06:25:47.179Z,102062.63
2022-10-19T06:28:13.707Z,102057.22
2022-10-19T06:30:41.442Z,102065.06
2022-10-19T06:33:08.104Z,102066.38
2022-10-19T06:35:34.644Z,102057.00
2022-10-19T06:38:01.403Z,102060.31
2022-10-19T06:40:27.989Z,102061.03
2022-10-19T06:42:55.508Z,102066.19
2022-10-19T06:45:22.282Z,102072.03
2022-10-19T06:47:48.878Z,102076.19
2022-10-19T06:50:15.622Z,102067.69
2022-10-19T06:52:42.232Z,102071.88
2022-10-19T06:55:09.314Z,102072.59
2022-10-19T06:57:36.218Z,102069.31
2022-10-19T07:00:04.671Z,102071.75
2022-10-19T07:02:31.428Z,102078.03
2022-10-19T07:04:57.932Z,102077.19
2022-10-19T07:07:24.671Z,102077.31
2022-10-19T07:09:51.233Z,102076.34
2022-10-19T07:12:17.773Z,102077.19
2022-10-19T07:14:44.268Z,102076.06
2022-10-19T07:17:12.013Z,102086.22
2022-10-19T07:19:38.711Z,102080.25
2022-10-19T07:22:05.282Z,102086.41
2022-10-19T07:24:31.798Z,102083.28
2022-10-19T07:26:58.277Z,102088.88
2022-10-19T07:29:24.836Z,102081.69
2022-10-19T07:31:51.369Z,102082.84
2022-10-19T07:34:17.923Z,102082.72
2022-10-19T07:36:48.041Z,102084.28
2022-10-19T07:39:19.495Z,102088.44
2022-10-19T07:41:46.457Z,102092.56
2022-10-19T07:44:15.946Z,102091.59
2022-10-19T07:46:43.059Z,102095.47
2022-10-19T07:49:13.295Z,102092.34
2022-10-19T07:51:40.855Z,102091.94
2022-10-19T07:54:07.731Z,102099.50
2022-10-19T07:56:35.143Z,102088.09
2022-10-19T07:59:02.786Z,102091.81
2022-10-19T08:01:35.195Z,102097.53
2022-10-19T08:06:49.039Z,102094.56
2022-10-19T08:09:33.342Z,102091.41
2022-10-19T08:12:02.422Z,102087.69
2022-10-19T08:14:28.941Z,102090.13
2022-10-19T08:16:55.447Z,102092.69
2022-10-19T08:19:22.862Z,102094.38
2022-10-19T08:21:49.606Z,102098.91
2022-10-19T08:24:18.329Z,102095.19
2022-10-19T08:26:45.190Z,102096.75
2022-10-19T08:29:17.240Z,102093.00
2022-10-19T08:31:44.941Z,102090.53
2022-10-19T08:34:12.575Z,102095.06
2022-10-19T08:36:39.458Z,102097.91
2022-10-19T08:39:08.174Z,102097.28
2022-10-19T08:41:44.377Z,102100.41
2022-10-19T08:44:38.784Z,102094.69
2022-10-19T08:47:26.944Z,102102.38
2022-10-19T08:49:53.637Z,102100.06
2022-10-19T08:52:23.061Z,102094.88
2022-10-19T08:54:51.220Z,102097.28
2022-10-19T08:57:55.914Z,102093.09
2022-10-19T09:00:42.123Z,102098.50
2022-10-19T09:03:37.537Z,102104.72
2022-10-19T09:06:22.944Z,102105.84
2022-10-19T09:08:54.677Z,102102.50
2022-10-19T09:11:25.839Z,102102.03
2022-10-19T09:14:05.155Z,102102.72
2022-10-19T09:16:33.078Z,102093.38
2022-10-19T09:18:59.616Z,102098.53
2022-10-19T09:21:47.479Z,102094.28
2022-10-19T09:24:38.083Z,102100.16
2022-10-19T09:27:05.734Z,102098.97
2022-10-19T09:29:45.116Z,102096.78
2022-10-19T09:32:19.523Z,102092.75
2022-10-19T09:34:54.625Z,102089.84
2022-10-19T09:37:25.963Z,102097.88
2022-10-19T09:39:54.998Z,102098.56
2022-10-19T09:42:37.176Z,102106.59
2022-10-19T09:45:44.267Z,102102.69
2022-10-19T09:48:17.407Z,102100.28
2022-10-19T09:50:44.914Z,102105.56
2022-10-19T09:53:19.713Z,102104.22
2022-10-19T09:55:51.274Z,102095.91
2022-10-19T09:58:18.795Z,102104.56
2022-10-19T10:00:47.049Z,102101.13
2022-10-19T10:03:32.768Z,102102.84
2022-10-19T10:06:03.445Z,102101.84
2022-10-19T10:08:32.670Z,102105.25
2022-10-19T10:11:14.446Z,102097.22
2022-10-19T10:13:43.137Z,102102.84
2022-10-19T10:16:13.556Z,102102.53
2022-10-19T10:18:51.807Z,102091.63
2022-10-19T10:21:25.751Z,102096.06
2022-10-19T10:24:23.132Z,102089.44
2022-10-19T10:26:52.211Z,102080.56
2022-10-19T10:29:20.220Z,102079.72
2022-10-19T10:31:49.905Z,102077.69
2022-10-19T10:34:38.752Z,102071.94
2022-10-19T10:37:20.759Z,102076.34
2022-10-19T10:39:55.822Z,102079.41
2022-10-19T10:42:37.731Z,102087.25
2022-10-19T10:45:05.041Z,102081.50
2022-10-19T10:47:31.888Z,102080.19
2022-10-19T10:50:01.268Z,102079.88
2022-10-19T10:52:30.910Z,102081.09
2022-10-19T10:55:04.131Z,102076.00
2022-10-19T10:57:33.809Z,102078.44
2022-10-19T11:00:03.101Z,102072.66
2022-10-19T11:02:40.501Z,102072.16
2022-10-19T11:05:46.392Z,102068.44
2022-10-19T11:08:12.962Z,102065.69
2022-10-19T11:10:43.792Z,102061.63
2022-10-19T11:13:17.419Z,102057.19
2022-10-19T11:15:54.182Z,102058.03
2022-10-19T11:18:29.873Z,102047.31
2022-10-19T11:21:06.544Z,102049.00
2022-10-19T11:23:39.583Z,102042.56
2022-10-19T11:26:33.947Z,102039.81
2022-10-19T11:29:14.898Z,102037.09
2022-10-19T11:31:45.875Z,102036.41
2022-10-19T11:34:44.937Z,102027.38
2022-10-19T11:37:32.798Z,102023.63
2022-10-19T11:40:21.842Z,102027.19
2022-10-19T11:43:12.841Z,102023.63
2022-10-19T11:46:12.917Z,102009.84
2022-10-19T11:48:51.691Z,102011.38
2022-10-19T11:51:40.065Z,102012.06
2022-10-19T11:54:24.505Z,102007.81
2022-10-19T11:57:10.574Z,101994.47
2022-10-19T11:59:50.459Z,101989.88
2022-10-19T12:02:40.027Z,101989.03
2022-10-19T12:05:18.945Z,101989.03
2022-10-19T12:07:48.990Z,101991.59
2022-10-19T12:10:24.815Z,101984.28
2022-10-19T12:12:55.097Z,101978.97
2022-10-19T12:15:29.933Z,101978.97
2022-10-19T12:18:00.517Z,101981.88
2022-10-19T12:20:59.759Z,101975.59
2022-10-19T12:23:34.663Z,101974.03
2022-10-19T12:26:05.030Z,101973.88
2022-10-19T12:28:34.400Z,101968.41
2022-10-19T12:31:02.583Z,101969.25
2022-10-19T12:33:31.899Z,101965.84
2022-10-19T12:36:13.745Z,101960.56
2022-10-19T12:38:45.972Z,101959.69
2022-10-19T12:41:22.847Z,101962.41
2022-10-19T12:44:22.239Z,101960.88
2022-10-19T12:47:00.793Z,101954.06
2022-10-19T12:49:30.674Z,101956.94
2022-10-19T12:51:58.725Z,101952.53
2022-10-19T12:54:31.741Z,101957.13
2022-10-19T12:56:59.468Z,101952.53
2022-10-19T12:59:31.304Z,101951.66
2022-10-19T13:01:58.892Z,101957.13
2022-10-19T13:04:33.739Z,101947.06
2022-10-19T13:07:06.276Z,101939.88
2022-10-19T13:09:36.047Z,101941.78
2022-10-19T13:12:21.658Z,101940.94
2022-10-19T13:15:34.560Z,101938.34
2022-10-19T13:18:18.202Z,101925.75
2022-10-19T13:20:53.527Z,101922.16
2022-10-19T13:23:19.981Z,101922.00
2022-10-19T13:25:46.567Z,101921.31
2022-10-19T13:28:14.977Z,101920.47
2022-10-19T13:30:42.257Z,101915.38
2022-10-19T13:33:31.428Z,101908.19
2022-10-19T13:36:00.989Z,101906.50
2022-10-19T13:38:37.644Z,101916.72
2022-10-19T13:41:21.498Z,101911.53
2022-10-19T13:44:03.533Z,101912.72
2022-10-19T13:46:29.981Z,101913.91
2022-10-19T13:49:18.421Z,101902.31
2022-10-19T13:52:04.055Z,101908.06
2022-10-19T13:54:36.700Z,101909.41
2022-10-19T13:57:31.947Z,101914.88
2022-10-19T14:00:20.064Z,101912.47
2022-10-19T14:02:55.980Z,101906.50
2022-10-19T14:05:55.170Z,101906.50
2022-10-19T14:08:37.833Z,101906.84
2022-10-19T14:11:12.022Z,101897.97
2022-10-19T14:13:38.552Z,101897.97
2022-10-19T14:16:05.507Z,101901.69
2022-10-19T14:18:33.879Z,101898.44
2022-10-19T14:21:02.641Z,101894.00
2022-10-19T14:23:42.745Z,101892.28
2022-10-19T14:26:15.747Z,101896.91
2022-10-19T14:28:43.114Z,101892.47
2022-10-19T14:31:11.620Z,101882.78
2022-10-19T14:33:39.791Z,101885.66
2022-10-19T14:36:07.683Z,101893.97
2022-10-19T14:38:37.515Z,101880.69
2022-10-19T14:41:18.954Z,101889.84
2022-10-19T14:43:45.629Z,101897.34
2022-10-19T14:46:15.916Z,101893.06
2022-10-19T14:48:45.407Z,101886.78
2022-10-19T14:51:29.838Z,101878.91
2022-10-19T14:54:00.855Z,101878.22
2022-10-19T14:56:34.827Z,101885.69
2022-10-19T14:59:05.394Z,101885.88
2022-10-19T15:01:32.105Z,101892.47
2022-10-19T15:03:58.677Z,101878.88
2022-10-19T15:06:28.449Z,101880.88
2022-10-19T15:09:03.668Z,101886.53
2022-10-19T15:11:38.127Z,101885.81
2022-10-19T15:14:15.996Z,101877.81
2022-10-19T15:16:57.221Z,101879.00
2022-10-19T15:19:29.018Z,101863.81
2022-10-19T15:22:13.745Z,101868.56
2022-10-19T15:24:41.803Z,101861.28
2022-10-19T15:27:19.359Z,101858.69
2022-10-19T15:29:56.508Z,101858.00
2022-10-19T15:32:25.882Z,101857.28
2022-10-19T15:34:52.437Z,101855.59
2022-10-19T15:37:22.278Z,101858.31
2022-10-19T15:39:50.716Z,101849.44
2022-10-19T15:42:40.860Z,101849.75
2022-10-19T15:45:32.138Z,101850.22
2022-10-19T15:48:10.622Z,101848.84
2022-10-19T15:50:40.841Z,101850.00
2022-10-19T15:53:07.361Z,101847.59
2022-10-19T15:55:33.952Z,101848.78
2022-10-19T15:58:00.706Z,101849.94
2022-10-19T16:00:28.833Z,101842.09
2022-10-19T16:02:55.378Z,101838.66
2022-10-19T16:05:22.789Z,101825.41
2022-10-19T16:07:49.434Z,101831.00
2022-10-19T16:10:21.668Z,101826.72
2022-10-19T16:12:48.360Z,101832.50
2022-10-19T16:15:18.506Z,101837.25
2022-10-19T16:17:47.093Z,101843.69
2022-10-19T16:20:13.871Z,101841.28
2022-10-19T16:22:40.375Z,101840.59
2022-10-19T16:25:07.159Z,101841.59
2022-10-19T16:27:34.066Z,101845.31
2022-10-19T16:30:00.880Z,101842.59
2022-10-19T16:32:27.435Z,101839.34
2022-10-19T16:34:53.990Z,101843.22
2022-10-19T16:37:20.490Z,101838.09
2022-10-19T16:39:46.980Z,101841.13
2022-10-19T16:42:13.509Z,101853.31
2022-10-19T16:44:40.004Z,101856.34
2022-10-19T16:47:06.526Z,101857.50
2022-10-19T16:49:33.045Z,101855.25
2022-10-19T16:52:01.615Z,101852.84
2022-10-19T16:54:32.812Z,101855.84
2022-10-19T16:56:59.394Z,101854.28
2022-10-19T16:59:25.940Z,101856.31
2022-10-19T17:01:53.821Z,101855.75
2022-10-19T17:04:20.761Z,101867.78
2022-10-19T17:06:47.453Z,101860.63
2022-10-19T17:12:01.347Z,101861.66
2022-10-19T17:14:27.876Z,101868.97
2022-10-19T17:16:54.377Z,101867.38
2022-10-19T17:19:21.032Z,101871.81
2022-10-19T17:21:49.388Z,101855.81
2022-10-19T17:24:21.660Z,101865.81
2022-10-19T17:26:50.338Z,101857.81
2022-10-19T17:29:16.849Z,101861.69
2022-10-19T17:31:43.675Z,101869.84
2022-10-19T17:34:10.363Z,101873.59
2022-10-19T17:39:10.930Z,101871.34
2022-10-19T17:41:37.444Z,101883.34
2022-10-19T17:44:05.322Z,101877.19
2022-10-19T17:46:34.016Z,101876.50
2022-10-19T17:49:01.008Z,101884.81
2022-10-19T17:51:30.166Z,101896.81
2022-10-19T17:54:01.309Z,101891.69
2022-10-19T17:56:28.125Z,101898.44
2022-10-19T17:58:55.833Z,101912.31
2022-10-19T18:01:23.101Z,101910.03
2022-10-19T18:03:50.414Z,101908.63
2022-10-19T18:06:29.482Z,101918.06
2022-10-19T18:08:56.874Z,101903.25
2022-10-19T18:11:55.921Z,101914.38
2022-10-19T18:14:22.427Z,101914.69
2022-10-19T18:16:49.092Z,101918.56
2022-10-19T18:19:16.626Z,101916.97
2022-10-19T18:21:45.087Z,101905.41
2022-10-19T18:24:16.465Z,101906.44
2022-10-19T18:26:43.352Z,101910.28
2022-10-19T18:29:16.358Z,101910.44
2022-10-19T18:31:43.174Z,101908.66
2022-10-19T18:34:14.025Z,101915.00
2022-10-19T18:36:40.618Z,101916.13
2022-10-19T18:39:07.735Z,101917.25
2022-10-19T18:41:34.279Z,101913.00
2022-10-19T18:44:03.659Z,101911.28
2022-10-19T18:46:31.489Z,101907.16
2022-10-19T18:48:59.500Z,101908.44
2022-10-19T18:51:26.143Z,101901.59
2022-10-19T18:53:52.846Z,101907.31
2022-10-19T18:56:21.511Z,101901.16
2022-10-19T18:58:48.488Z,101897.03
2022-10-19T19:01:26.827Z,101892.75
2022-10-19T19:03:56.210Z,101898.19
2022-10-19T19:06:28.974Z,101895.59
2022-10-19T19:08:56.993Z,101889.47
2022-10-19T19:11:29.593Z,101899.59
2022-10-19T19:14:07.580Z,101891.06
2022-10-19T19:16:37.238Z,101895.91
2022-10-19T19:19:04.588Z,101894.34
2022-10-19T19:21:32.302Z,101893.63
2022-10-19T19:24:01.235Z,101899.38
2022-10-19T19:26:31.039Z,101898.91
2022-10-19T19:28:57.758Z,101899.22
2022-10-19T19:31:24.891Z,101901.22
2022-10-19T19:33:51.618Z,101898.78
2022-10-19T19:36:19.351Z,101903.47
2022-10-19T19:38:46.009Z,101899.91
2022-10-19T19:41:14.285Z,101899.22
2022-10-19T19:43:42.482Z,101893.91
2022-10-19T19:46:14.623Z,101885.06
2022-10-19T19:48:42.594Z,101899.78
2022-10-19T19:51:11.033Z,101898.22
2022-10-19T19:53:38.107Z,101905.63
2022-10-19T19:56:07.130Z,101904.78
2022-10-19T19:58:34.413Z,101911.03
2022-10-19T20:01:11.887Z,101912.19
2022-10-19T20:03:38.894Z,101905.16
2022-10-19T20:06:05.986Z,101904.50
2022-10-19T20:08:33.105Z,101921.72
2022-10-19T20:11:04.886Z,101920.97
2022-10-19T20:13:31.944Z,101919.53
2022-10-19T20:16:02.414Z,101917.25
2022-10-19T20:18:29.757Z,101911.97
2022-10-19T20:21:01.085Z,101910.41
2022-10-19T20:23:28.321Z,101921.25
2022-10-19T20:25:56.578Z,101914.97
2022-10-19T20:28:26.906Z,101906.84
2022-10-19T20:31:05.092Z,101906.13
2022-10-19T20:33:33.049Z,101903.56
2022-10-19T20:36:09.119Z,101904.41
2022-10-19T20:38:37.254Z,101900.72
2022-10-19T20:41:08.181Z,101902.53
2022-10-19T20:43:36.478Z,101905.25
2022-10-19T20:46:14.048Z,101897.28
2022-10-19T20:48:40.868Z,101900.97
2022-10-19T20:51:09.352Z,101900.41
2022-10-19T20:53:36.086Z,101893.56
2022-10-19T20:56:07.070Z,101896.66
2022-10-19T20:58:34.187Z,101898.94
2022-10-19T21:01:12.815Z,101897.38
2022-10-19T21:03:40.027Z,101897.50
2022-10-19T21:06:08.203Z,101891.25
2022-10-19T21:08:35.989Z,101894.09
2022-10-19T21:11:11.942Z,101892.66
2022-10-19T21:13:39.049Z,101893.19
2022-10-19T21:18:41.266Z,101884.94
2022-10-19T21:21:12.920Z,101883.94
2022-10-19T21:23:39.339Z,101894.94
2022-10-19T21:26:06.027Z,101898.34
2022-10-19T21:28:32.711Z,101900.34
2022-10-19T21:31:06.842Z,101903.19
2022-10-19T21:33:33.357Z,101898.91
2022-10-19T21:36:05.478Z,101899.03
2022-10-19T21:38:32.773Z,101900.00
2022-10-19T21:41:00.479Z,101899.16
2022-10-19T21:43:27.616Z,101900.00
2022-10-19T21:45:54.307Z,101897.28
2022-10-19T21:48:21.179Z,101901.00
2022-10-19T21:50:48.775Z,101904.69
2022-10-19T21:53:20.521Z,101897.59
2022-10-19T21:55:46.909Z,101899.44
2022-10-19T21:58:13.764Z,101909.44
2022-10-19T22:00:40.531Z,101912.97
2022-10-19T22:03:07.246Z,101913.09
2022-10-19T22:05:33.778Z,101909.69
2022-10-19T22:08:00.334Z,101914.25
2022-10-19T22:10:26.816Z,101907.81
2022-10-19T22:12:53.367Z,101911.41
2022-10-19T22:15:19.853Z,101906.84
2022-10-19T22:17:46.548Z,101904.28
2022-10-19T22:20:13.114Z,101900.00
2022-10-19T22:22:39.578Z,101904.56
2022-10-19T22:25:06.343Z,101902.81
2022-10-19T22:27:33.786Z,101906.53
2022-10-19T22:30:00.254Z,101902.22
2022-10-19T22:32:26.736Z,101902.22
2022-10-19T22:34:53.236Z,101901.38
2022-10-19T22:37:19.722Z,101895.13
2022-10-19T22:39:46.395Z,101897.94
2022-10-19T22:43:09.069Z,101899.81
2022-10-19T22:46:31.539Z,101905.34
2022-10-19T22:49:54.009Z,101904.50
2022-10-19T22:52:57.384Z,101909.91
2022-10-19T22:55:23.864Z,101903.78
2022-10-19T22:57:50.352Z,101906.50
2022-10-19T23:00:16.922Z,101899.34
2022-10-19T23:02:43.433Z,101900.06
2022-10-19T23:05:09.931Z,101904.50
2022-10-19T23:07:38.133Z,101893.69
2022-10-19T23:10:05.822Z,101894.53
2022-10-19T23:12:32.295Z,101896.25
2022-10-19T23:14:58.752Z,101899.94
2022-10-19T23:17:25.206Z,101901.06
2022-10-19T23:19:51.668Z,101899.09
2022-10-19T23:22:18.187Z,101895.66
2022-10-19T23:24:44.643Z,101893.81
2022-10-19T23:27:13.047Z,101891.94
2022-10-19T23:29:39.767Z,101902.66
2022-10-19T23:32:06.374Z,101898.97
2022-10-19T23:34:33.019Z,101907.81
2022-10-19T23:36:59.494Z,101911.34
2022-10-19T23:39:25.929Z,101904.22
2022-10-19T23:41:52.680Z,101911.34
2022-10-19T23:44:19.158Z,101905.94
2022-10-19T23:46:45.712Z,101907.94
2022-10-19T23:49:12.284Z,101907.94
2022-10-19T23:51:38.726Z,101913.34
2022-10-19T23:54:05.236Z,101909.06
2022-10-19T23:56:31.701Z,101908.59
2022-10-19T23:58:58.168Z,101909.72
